Time;durP1;ratioP1;P1;durP2;ratioP2;P2;SDS_P1;SDS_P2;PMS_P1;PMS_P2;Temp;Humidity;BMP_temperature;BMP_pressure;BME280_temperature;BME280_humidity;BME280_pressure;Samples;Min_cycle;Max_cycle;Signal;HPM_P1;HPM_P2
2022/09/20 00:01:21;;;;;;;0.30;0.30;;;7.20;99.10;;;;;;5013686;28;20255;-70
2022/09/20 00:03:49;;;;;;;0.40;0.40;;;7.20;98.90;;;;;;5013973;28;20411;-69
2022/09/20 00:06:17;;;;;;;1.02;1.02;;;7.20;99.00;;;;;;5013767;28;20188;-69
2022/09/20 00:08:43;;;;;;;1.42;0.70;;;7.10;99.90;;;;;;5013489;28;20177;-68
2022/09/20 00:11:16;;;;;;;0.40;0.40;;;7.10;99.10;;;;;;5013531;28;20191;-70
2022/09/20 00:13:43;;;;;;;0.40;0.40;;;7.00;99.10;;;;;;5012313;28;20312;-71
2022/09/20 00:16:13;;;;;;;0.50;0.50;;;7.00;99.20;;;;;;5013551;28;20642;-69
2022/09/20 00:18:39;;;;;;;0.30;0.30;;;7.00;99.20;;;;;;5013417;28;20201;-69
2022/09/20 00:21:05;;;;;;;0.30;0.30;;;7.00;99.20;;;;;;5013087;28;20524;-68
2022/09/20 00:23:31;;;;;;;0.40;0.40;;;7.00;99.30;;;;;;5013377;28;20693;-71
2022/09/20 00:25:59;;;;;;;0.40;0.40;;;7.00;99.10;;;;;;5013375;28;20188;-71
2022/09/20 00:28:26;;;;;;;0.40;0.40;;;7.00;99.10;;;;;;5013549;28;20503;-69
2022/09/20 00:30:52;;;;;;;0.50;0.50;;;6.90;98.90;;;;;;5011918;28;20235;-71
2022/09/20 00:33:19;;;;;;;0.77;0.77;;;6.90;98.90;;;;;;5013640;28;20190;-71
2022/09/20 00:35:45;;;;;;;0.40;0.40;;;6.90;98.90;;;;;;5013342;28;20239;-71
2022/09/20 00:38:12;;;;;;;0.40;0.40;;;6.80;98.90;;;;;;5013292;28;20256;-69
2022/09/20 00:40:39;;;;;;;0.50;0.50;;;6.90;98.80;;;;;;5013209;28;20193;-68
2022/09/20 00:43:05;;;;;;;0.30;0.30;;;6.90;98.70;;;;;;5012203;28;20239;-69
2022/09/20 00:45:31;;;;;;;0.40;0.40;;;6.80;98.80;;;;;;5013385;28;20261;-69
2022/09/20 00:48:19;;;;;;;0.40;0.40;;;6.70;98.90;;;;;;5013477;28;20443;-72
2022/09/20 00:50:54;;;;;;;0.40;0.40;;;6.70;99.00;;;;;;5013086;28;20520;-70
2022/09/20 00:53:28;;;;;;;0.50;0.50;;;6.60;99.00;;;;;;5013481;28;20175;-70
2022/09/20 00:55:58;;;;;;;0.30;0.30;;;6.60;99.20;;;;;;5013431;28;20167;-72
2022/09/20 00:58:27;;;;;;;0.30;0.30;;;6.60;99.30;;;;;;5013049;28;20206;-71
2022/09/20 01:00:55;;;;;;;0.32;0.32;;;6.60;99.30;;;;;;5013020;28;20238;-69
2022/09/20 01:03:24;;;;;;;0.30;0.30;;;6.60;99.20;;;;;;5015231;28;20176;-68
2022/09/20 01:05:51;;;;;;;0.40;0.40;;;6.60;99.30;;;;;;5016754;28;20172;-71
2022/09/20 01:08:17;;;;;;;1.98;1.45;;;6.50;99.30;;;;;;5016748;28;20176;-72
2022/09/20 01:10:43;;;;;;;0.40;0.40;;;6.50;99.30;;;;;;5016346;28;20211;-72
2022/09/20 01:13:09;;;;;;;0.30;0.30;;;6.50;99.20;;;;;;5016692;28;20179;-69
2022/09/20 01:15:37;;;;;;;0.30;0.30;;;6.50;99.10;;;;;;5016420;28;20192;-69
2022/09/20 01:18:05;;;;;;;0.40;0.40;;;6.40;99.10;;;;;;5016541;28;20219;-72
2022/09/20 01:20:35;;;;;;;0.40;0.40;;;6.40;99.00;;;;;;5016210;28;20203;-69
2022/09/20 01:23:22;;;;;;;0.30;0.30;;;6.40;99.20;;;;;;5016487;28;20649;-69
2022/09/20 01:26:12;;;;;;;0.30;0.30;;;6.40;99.20;;;;;;5016312;28;20160;-69
2022/09/20 01:28:41;;;;;;;0.30;0.30;;;6.30;99.20;;;;;;5016339;28;20597;-70
2022/09/20 01:31:24;;;;;;;0.60;0.60;;;6.30;99.60;;;;;;5016345;28;20279;-68
2022/09/20 01:34:02;;;;;;;0.40;0.40;;;6.20;99.50;;;;;;5015056;28;20640;-71
2022/09/20 01:36:37;;;;;;;0.30;0.30;;;6.30;99.40;;;;;;5016184;28;20508;-70
2022/09/20 01:39:15;;;;;;;0.40;0.40;;;6.30;99.40;;;;;;5016158;28;20203;-71
2022/09/20 01:41:52;;;;;;;0.45;0.45;;;6.30;99.50;;;;;;5015973;28;20171;-70
2022/09/20 01:44:21;;;;;;;0.77;0.77;;;6.20;99.50;;;;;;5016382;28;20207;-71
2022/09/20 01:46:53;;;;;;;0.32;0.32;;;6.20;99.70;;;;;;5015911;28;20196;-70
2022/09/20 01:49:20;;;;;;;0.40;0.40;;;6.20;99.60;;;;;;5014594;28;20199;-72
2022/09/20 01:51:58;;;;;;;0.40;0.40;;;6.20;99.50;;;;;;5015739;28;20175;-71
2022/09/20 01:54:35;;;;;;;0.40;0.40;;;6.20;99.40;;;;;;5014500;28;20262;-70
2022/09/20 01:57:36;;;;;;;0.30;0.30;;;6.10;99.50;;;;;;5015561;28;20175;-69
2022/09/20 02:00:07;;;;;;;0.30;0.30;;;6.10;99.70;;;;;;5001492;28;20698;-70
2022/09/20 02:03:01;;;;;;;0.30;0.30;;;6.10;99.90;;;;;;5015725;28;20173;-69
2022/09/20 02:05:38;;;;;;;0.30;0.30;;;6.10;99.90;;;;;;5015748;28;20164;-71
2022/09/20 02:08:13;;;;;;;0.30;0.30;;;6.20;99.70;;;;;;5015571;28;20172;-71
2022/09/20 02:10:48;;;;;;;0.40;0.40;;;6.20;99.40;;;;;;5015400;28;20564;-69
2022/09/20 02:13:29;;;;;;;0.70;0.70;;;6.10;99.40;;;;;;5015331;28;20233;-69
2022/09/20 02:16:19;;;;;;;0.30;0.30;;;6.10;99.40;;;;;;5014966;28;20656;-70
2022/09/20 02:19:03;;;;;;;0.30;0.30;;;6.50;99.90;;;;;;5015274;28;20212;-70
2022/09/20 02:22:01;;;;;;;0.30;0.30;;;6.20;99.50;;;;;;5015329;28;20195;-70
2022/09/20 02:24:41;;;;;;;0.30;0.30;;;6.20;99.50;;;;;;5015299;28;20677;-68
2022/09/20 02:27:17;;;;;;;0.30;0.30;;;6.10;99.40;;;;;;5015354;28;20176;-71
2022/09/20 02:30:15;;;;;;;0.50;0.50;;;6.10;99.60;;;;;;5014897;28;20297;-68
2022/09/20 02:32:56;;;;;;;0.50;0.50;;;6.00;99.40;;;;;;4988397;28;20188;-69
2022/09/20 02:35:41;;;;;;;2.15;2.05;;;6.00;99.50;;;;;;5015257;28;20519;-70
2022/09/20 02:38:25;;;;;;;0.40;0.40;;;6.10;99.80;;;;;;5015033;28;20249;-70
2022/09/20 02:41:06;;;;;;;0.32;0.32;;;6.10;99.80;;;;;;5013504;28;20191;-70
2022/09/20 02:43:48;;;;;;;0.40;0.40;;;6.10;99.50;;;;;;5015253;28;20172;-69
2022/09/20 02:46:44;;;;;;;1.27;1.25;;;6.10;99.50;;;;;;5013671;28;20271;-69
2022/09/20 02:49:12;;;;;;;0.40;0.40;;;6.00;99.50;;;;;;5014758;28;20322;-67
2022/09/20 02:51:51;;;;;;;0.30;0.30;;;6.00;99.70;;;;;;5014610;28;20207;-70
2022/09/20 02:54:47;;;;;;;0.68;0.68;;;6.10;99.70;;;;;;5015076;28;20259;-71
2022/09/20 02:57:22;;;;;;;0.40;0.40;;;6.10;99.70;;;;;;5014544;28;20196;-69
2022/09/20 03:00:12;;;;;;;0.30;0.30;;;6.10;99.90;;;;;;5014344;28;20273;-70
2022/09/20 03:03:17;;;;;;;0.30;0.30;;;6.00;99.90;;;;;;5014910;28;20171;-71
2022/09/20 03:05:55;;;;;;;0.93;0.93;;;6.00;99.90;;;;;;5014620;28;20175;-70
2022/09/20 03:08:33;;;;;;;0.40;0.40;;;6.00;99.90;;;;;;5014489;28;20532;-71
2022/09/20 03:11:11;;;;;;;0.90;0.90;;;6.00;99.90;;;;;;5014283;28;20259;-71
2022/09/20 03:13:39;;;;;;;0.32;0.32;;;6.00;99.80;;;;;;5014168;28;20183;-70
2022/09/20 03:16:13;;;;;;;0.60;0.60;;;6.00;99.70;;;;;;5014466;28;20172;-70
2022/09/20 03:19:13;;;;;;;0.38;0.38;;;5.90;99.60;;;;;;5014351;28;20553;-70
2022/09/20 03:22:00;;;;;;;0.50;0.50;;;5.90;99.80;;;;;;5012891;28;20187;-69
2022/09/20 03:24:41;;;;;;;0.40;0.40;;;6.00;99.70;;;;;;5014365;28;20203;-71
2022/09/20 03:27:18;;;;;;;0.32;0.32;;;6.00;99.60;;;;;;5014150;28;20164;-69
2022/09/20 03:30:01;;;;;;;0.50;0.50;;;5.90;99.70;;;;;;5013989;28;20187;-70
2022/09/20 03:32:57;;;;;;;0.60;0.60;;;5.90;99.50;;;;;;5014311;28;20190;-68
2022/09/20 03:36:05;;;;;;;0.60;0.60;;;5.90;99.50;;;;;;5014151;28;20176;-67
2022/09/20 03:38:33;;;;;;;0.40;0.40;;;5.90;99.80;;;;;;5014164;28;20257;-69
2022/09/20 03:41:28;;;;;;;0.40;0.40;;;5.90;99.90;;;;;;5013697;28;20167;-70
2022/09/20 03:43:53;;;;;;;0.30;0.30;;;5.90;99.90;;;;;;5013953;28;20168;-70
2022/09/20 03:46:25;;;;;;;0.40;0.40;;;6.00;99.90;;;;;;5012731;28;20176;-70
2022/09/20 03:49:22;;;;;;;0.50;0.50;;;6.20;99.90;;;;;;5013979;28;20254;-69
2022/09/20 03:52:16;;;;;;;0.73;0.50;;;6.00;99.80;;;;;;5013668;28;20171;-70
2022/09/20 03:55:20;;;;;;;0.35;0.35;;;5.90;99.80;;;;;;5014136;28;20262;-71
2022/09/20 03:57:49;;;;;;;0.30;0.30;;;6.00;99.60;;;;;;4934132;29;20232;-71
2022/09/20 04:00:52;;;;;;;0.30;0.30;;;5.90;99.80;;;;;;4933842;29;20285;-70
2022/09/20 04:03:28;;;;;;;0.30;0.30;;;5.90;99.90;;;;;;4993051;28;20186;-69
2022/09/20 04:06:16;;;;;;;0.50;0.50;;;5.90;99.80;;;;;;5013687;28;20163;-69
2022/09/20 04:08:55;;;;;;;2.78;0.88;;;5.90;99.90;;;;;;5012378;28;20179;-71
2022/09/20 04:11:27;;;;;;;0.30;0.30;;;5.80;99.80;;;;;;5013501;28;20579;-70
2022/09/20 04:13:59;;;;;;;0.30;0.30;;;5.80;99.70;;;;;;5013648;28;20183;-70
2022/09/20 04:16:43;;;;;;;0.70;0.70;;;5.80;99.80;;;;;;5013784;28;20671;-70
2022/09/20 04:19:16;;;;;;;0.40;0.40;;;5.80;99.90;;;;;;5013278;28;20289;-71
2022/09/20 04:21:53;;;;;;;0.40;0.40;;;5.70;99.90;;;;;;5013435;28;20238;-68
2022/09/20 04:24:22;;;;;;;0.30;0.30;;;5.80;99.90;;;;;;5013712;28;20174;-69
2022/09/20 04:27:10;;;;;;;0.30;0.30;;;5.80;99.90;;;;;;5013629;28;20204;-69
2022/09/20 04:29:52;;;;;;;0.30;0.30;;;5.90;99.90;;;;;;5013191;28;20664;-72
2022/09/20 04:32:32;;;;;;;0.38;0.38;;;5.90;99.90;;;;;;5013754;28;20529;-69
2022/09/20 04:37:47;;;;;;;0.70;0.70;;;5.80;99.90;;;;;;5014813;28;20242;-71
2022/09/20 04:40:38;;;;;;;0.30;0.30;;;5.80;99.90;;;;;;5017062;28;20540;-71
2022/09/20 04:43:52;;;;;;;0.30;0.30;;;5.90;99.90;;;;;;4986883;28;20760;-70
2022/09/20 04:46:40;;;;;;;0.30;0.30;;;5.90;99.90;;;;;;5017352;28;20167;-69
2022/09/20 04:49:11;;;;;;;0.70;0.70;;;5.90;99.60;;;;;;5014519;28;20555;-69
2022/09/20 04:52:02;;;;;;;1.20;1.20;;;5.80;99.70;;;;;;5016261;28;20171;-70
2022/09/20 04:55:06;;;;;;;2.05;1.05;;;5.80;99.80;;;;;;5016805;28;20179;-72
2022/09/20 04:57:44;;;;;;;0.40;0.40;;;5.80;99.90;;;;;;5015228;28;20199;-70
2022/09/20 05:00:45;;;;;;;0.30;0.30;;;5.70;99.90;;;;;;5016645;28;20583;-72
2022/09/20 05:03:43;;;;;;;0.30;0.30;;;5.70;99.90;;;;;;5017018;28;20176;-70
2022/09/20 05:06:37;;;;;;;0.30;0.30;;;5.70;99.90;;;;;;5017286;28;20520;-68
2022/09/20 05:09:41;;;;;;;0.40;0.40;;;5.90;99.90;;;;;;5015443;28;20228;-69
2022/09/20 05:12:13;;;;;;;0.63;0.63;;;5.90;99.90;;;;;;5017167;28;20570;-69
2022/09/20 05:15:04;;;;;;;0.30;0.30;;;5.90;99.90;;;;;;5015680;28;20187;-69
2022/09/20 06:08:10;;;;;;;3.03;1.58;;;6.30;99.90;;;;;;5015870;28;20245;-71
2022/09/20 06:10:51;;;;;;;0.47;0.47;;;6.40;99.90;;;;;;5015570;28;20191;-69
2022/09/20 06:13:35;;;;;;;0.40;0.40;;;6.40;99.70;;;;;;5015415;28;20189;-70
2022/09/20 06:16:04;;;;;;;0.60;0.60;;;6.40;99.70;;;;;;5015439;28;20176;-71
2022/09/20 06:18:48;;;;;;;0.40;0.40;;;6.40;99.70;;;;;;5015295;28;20201;-71
